Terminal Aerodrome Forecast
Issued by NWS

Home | Current Version | Previous Version | Text Only | Print | Product List | Glossary On
Versions: 1 2 3 4 5 6 7 8 9 10 11 12 13
000
FTUS43 KICT 292327
TAFHUT
TAF
KHUT 292327Z 3000/3024 36011KT P6SM SCT200
     FM301400 21009KT P6SM SCT150
     FM302300 11005KT P6SM BKN110=

USA.gov is the U.S. government's official web portal to all federal, state and local government web resources and services.